Time;durP1;ratioP1;P1;durP2;ratioP2;P2;SDS_P1;SDS_P2;PMS_P1;PMS_P2;Temp;Humidity;BMP_temperature;BMP_pressure;BME280_temperature;BME280_humidity;BME280_pressure;Samples;Min_cycle;Max_cycle;Signal;HPM_P1;HPM_P2
2021/08/26 00:00:29;;;;;;;3.47;2.23;;;17.30;99.90;;;;;;5016448;28;20657;-50
2021/08/26 00:05:50;;;;;;;2.70;2.00;;;17.50;99.90;;;;;;5023910;28;20208;-50
2021/08/26 00:08:23;;;;;;;2.10;1.90;;;17.50;99.90;;;;;;5014764;28;20208;-50
2021/08/26 00:10:53;;;;;;;2.00;1.80;;;17.40;99.90;;;;;;5015682;28;20306;-49
2021/08/26 00:13:22;;;;;;;2.13;1.40;;;17.50;99.90;;;;;;5011395;28;20311;-50
2021/08/26 00:15:50;;;;;;;2.20;1.50;;;17.60;99.90;;;;;;5015082;28;20604;-50
2021/08/26 00:18:22;;;;;;;2.17;1.67;;;17.40;99.90;;;;;;5016812;28;20200;-49
2021/08/26 00:20:52;;;;;;;2.00;1.50;;;17.30;99.90;;;;;;5013302;28;20726;-50
2021/08/26 00:23:21;;;;;;;1.70;1.30;;;17.40;99.90;;;;;;5016568;28;20204;-49
2021/08/26 00:25:49;;;;;;;1.47;1.17;;;17.30;99.90;;;;;;5016678;28;20635;-50
2021/08/26 00:28:17;;;;;;;2.43;1.37;;;17.40;99.90;;;;;;5015997;28;20234;-50
2021/08/26 00:30:44;;;;;;;1.00;0.90;;;17.50;99.90;;;;;;5017958;28;20758;-50
2021/08/26 00:33:11;;;;;;;2.80;1.10;;;17.60;99.90;;;;;;5021651;28;20406;-50
2021/08/26 00:35:38;;;;;;;2.40;1.30;;;17.50;99.90;;;;;;5016297;28;21562;-50
2021/08/26 00:38:04;;;;;;;3.23;1.53;;;17.50;99.90;;;;;;5019057;28;20351;-50
2021/08/26 00:40:31;;;;;;;2.33;1.00;;;17.40;99.90;;;;;;5019088;28;20749;-50
2021/08/26 00:43:01;;;;;;;2.17;1.07;;;17.40;99.90;;;;;;5019622;28;20200;-50
2021/08/26 00:45:32;;;;;;;1.70;1.00;;;17.30;99.90;;;;;;5018830;28;20236;-50
2021/08/26 00:48:02;;;;;;;1.97;1.10;;;17.40;99.90;;;;;;5020328;28;20200;-51
2021/08/26 00:50:29;;;;;;;2.53;1.17;;;17.40;99.90;;;;;;5019944;28;20309;-51
2021/08/26 00:52:56;;;;;;;1.97;1.13;;;17.50;99.90;;;;;;5021725;28;21083;-51
2021/08/26 00:55:23;;;;;;;2.60;1.33;;;17.40;99.90;;;;;;5018502;28;20636;-50
2021/08/26 00:57:50;;;;;;;1.27;1.17;;;17.40;99.90;;;;;;5020779;28;20698;-51
2021/08/26 01:00:17;;;;;;;2.87;1.00;;;17.50;99.90;;;;;;5018849;28;20293;-50
2021/08/26 01:02:57;;;;;;;1.50;1.00;;;17.50;99.90;;;;;;5018243;28;20297;-51
2021/08/26 01:05:29;;;;;;;1.30;1.20;;;17.50;99.90;;;;;;5018841;28;20554;-50
2021/08/26 01:08:14;;;;;;;1.90;1.03;;;17.30;99.90;;;;;;5021337;28;20279;-50
2021/08/26 01:10:43;;;;;;;1.20;1.10;;;17.40;99.90;;;;;;5021869;28;20564;-51
2021/08/26 01:13:12;;;;;;;1.87;1.23;;;17.50;99.90;;;;;;5017581;28;20205;-50
2021/08/26 01:15:39;;;;;;;3.80;1.60;;;17.30;99.90;;;;;;5021237;28;20313;-51
2021/08/26 01:18:06;;;;;;;2.13;1.40;;;17.30;99.90;;;;;;5018247;28;20204;-50
2021/08/26 01:20:34;;;;;;;3.30;1.40;;;17.30;99.90;;;;;;5020435;28;20201;-50
2021/08/26 01:23:01;;;;;;;1.60;1.30;;;17.40;99.90;;;;;;5017974;28;20290;-51
2021/08/26 01:25:29;;;;;;;5.93;1.50;;;17.20;99.90;;;;;;5019214;28;20293;-50
2021/08/26 01:28:05;;;;;;;2.77;1.33;;;17.20;99.90;;;;;;5019806;28;20235;-51
2021/08/26 01:30:37;;;;;;;1.80;1.40;;;17.20;99.90;;;;;;5018588;28;20639;-50
2021/08/26 01:33:05;;;;;;;3.17;1.70;;;17.10;99.90;;;;;;5016738;28;20229;-51
2021/08/26 01:35:33;;;;;;;2.70;1.40;;;17.30;99.90;;;;;;5018470;28;20190;-50
2021/08/26 01:38:00;;;;;;;3.50;1.57;;;17.40;99.90;;;;;;5018680;28;20328;-51
2021/08/26 01:40:42;;;;;;;2.00;1.47;;;17.40;99.90;;;;;;5017205;28;20214;-51
2021/08/26 01:43:16;;;;;;;2.50;1.80;;;17.40;99.90;;;;;;5013051;28;20243;-50
2021/08/26 01:45:45;;;;;;;3.27;1.30;;;17.20;99.90;;;;;;5010240;28;20208;-50
2021/08/26 01:48:19;;;;;;;2.10;1.27;;;17.10;99.90;;;;;;5011908;28;20205;-50
2021/08/26 01:50:48;;;;;;;4.93;1.67;;;17.30;99.90;;;;;;5011725;28;20425;-50
2021/08/26 01:53:16;;;;;;;4.93;1.60;;;17.30;99.90;;;;;;5014064;28;20289;-51
2021/08/26 01:55:45;;;;;;;4.70;1.63;;;17.40;99.90;;;;;;5018443;28;20391;-50
2021/08/26 01:58:13;;;;;;;2.47;1.23;;;17.50;99.90;;;;;;5013280;28;20283;-50
2021/08/26 02:00:40;;;;;;;2.67;1.23;;;17.40;99.90;;;;;;5017473;28;20346;-50
2021/08/26 02:03:07;;;;;;;4.67;1.70;;;17.40;99.90;;;;;;5018294;28;21668;-50
2021/08/26 02:05:34;;;;;;;3.97;1.47;;;17.40;99.90;;;;;;5017916;28;20300;-51
2021/08/26 02:08:01;;;;;;;2.43;1.30;;;17.40;99.90;;;;;;5013879;28;20231;-51
2021/08/26 02:10:28;;;;;;;3.33;1.40;;;17.50;99.90;;;;;;5019740;28;20259;-51
2021/08/26 02:12:55;;;;;;;5.20;1.80;;;17.40;99.90;;;;;;5013667;28;20303;-51
2021/08/26 02:15:22;;;;;;;5.13;1.90;;;17.40;99.90;;;;;;5013695;28;20679;-51
2021/08/26 02:17:49;;;;;;;4.70;1.97;;;17.20;99.90;;;;;;5011330;28;20196;-51
2021/08/26 02:20:16;;;;;;;7.70;1.27;;;17.20;99.90;;;;;;5017894;28;20203;-50
2021/08/26 02:22:43;;;;;;;2.50;1.40;;;17.30;99.90;;;;;;5016451;28;20294;-50
2021/08/26 02:25:12;;;;;;;2.73;1.10;;;17.40;99.90;;;;;;5018002;28;20668;-50
2021/08/26 02:27:39;;;;;;;7.40;1.53;;;17.50;99.90;;;;;;5013623;28;20242;-50
2021/08/26 02:30:07;;;;;;;5.70;1.40;;;17.40;99.90;;;;;;5011625;28;20329;-50
2021/08/26 02:32:35;;;;;;;4.17;1.60;;;17.40;99.90;;;;;;5014079;28;20313;-51
2021/08/26 02:35:03;;;;;;;5.33;1.30;;;17.40;99.90;;;;;;5011984;28;20221;-50
2021/08/26 02:37:30;;;;;;;4.63;1.33;;;17.20;99.90;;;;;;5012992;28;20210;-50
2021/08/26 02:39:57;;;;;;;4.77;1.50;;;17.00;99.90;;;;;;5011466;28;20364;-50
2021/08/26 02:42:24;;;;;;;2.60;1.33;;;17.10;99.90;;;;;;5015570;28;20696;-50
2021/08/26 02:44:51;;;;;;;4.47;1.50;;;17.10;99.90;;;;;;5013581;28;20301;-50
2021/08/26 02:47:17;;;;;;;5.77;2.10;;;17.00;99.90;;;;;;5017552;28;20242;-50
2021/08/26 02:49:44;;;;;;;6.07;2.33;;;17.10;99.90;;;;;;5010360;28;20580;-50
2021/08/26 02:52:11;;;;;;;5.10;2.03;;;17.10;99.90;;;;;;5012347;28;20945;-50
2021/08/26 02:54:38;;;;;;;8.03;1.60;;;17.00;99.90;;;;;;5012160;28;20235;-51
2021/08/26 02:57:06;;;;;;;6.53;1.67;;;17.30;99.90;;;;;;5015972;28;20294;-50
2021/08/26 02:59:33;;;;;;;3.43;1.60;;;17.20;99.90;;;;;;5012685;28;20302;-50
2021/08/26 03:01:59;;;;;;;7.90;2.13;;;17.20;99.90;;;;;;5013164;28;20282;-51
2021/08/26 03:04:27;;;;;;;7.33;2.30;;;17.20;99.90;;;;;;5013366;28;20207;-50
2021/08/26 03:06:53;;;;;;;4.57;1.77;;;17.10;99.90;;;;;;5021897;28;20306;-51
2021/08/26 03:09:20;;;;;;;7.20;1.80;;;17.10;99.90;;;;;;5012992;28;20710;-50
2021/08/26 03:11:47;;;;;;;6.80;2.03;;;17.20;99.90;;;;;;5013810;28;20367;-50
2021/08/26 03:14:14;;;;;;;6.17;1.90;;;17.10;99.90;;;;;;5013252;28;20203;-50
2021/08/26 03:16:41;;;;;;;4.87;2.10;;;17.20;99.90;;;;;;5014209;28;20239;-50
2021/08/26 03:19:08;;;;;;;6.00;1.83;;;17.30;99.90;;;;;;5012611;28;20565;-50
2021/08/26 03:21:35;;;;;;;7.53;2.50;;;17.10;99.90;;;;;;5017909;28;20209;-50
2021/08/26 03:24:01;;;;;;;9.57;2.20;;;17.10;99.90;;;;;;5011585;28;20255;-51
2021/08/26 03:26:28;;;;;;;5.47;1.90;;;17.30;99.90;;;;;;5013541;28;20306;-50
2021/08/26 03:28:55;;;;;;;6.40;2.10;;;17.10;99.90;;;;;;5015189;28;20299;-50
2021/08/26 03:31:22;;;;;;;8.40;2.60;;;17.10;99.90;;;;;;5017751;28;20362;-50
2021/08/26 03:33:49;;;;;;;6.67;2.20;;;17.10;99.90;;;;;;5010836;28;20290;-51
2021/08/26 03:36:15;;;;;;;5.77;2.40;;;17.20;99.90;;;;;;5014108;28;20352;-50
2021/08/26 03:38:42;;;;;;;6.97;2.30;;;17.30;99.90;;;;;;5016544;28;20337;-50
2021/08/26 03:41:09;;;;;;;7.00;2.07;;;17.10;99.90;;;;;;5014859;28;20201;-50
2021/08/26 03:43:36;;;;;;;4.20;2.13;;;17.20;99.90;;;;;;5011730;28;20692;-51
2021/08/26 03:46:03;;;;;;;8.40;2.07;;;17.00;99.90;;;;;;5011447;28;20302;-51
2021/08/26 03:48:29;;;;;;;7.30;2.10;;;16.90;99.90;;;;;;5016679;28;20237;-50
2021/08/26 03:50:56;;;;;;;7.67;2.50;;;16.80;99.90;;;;;;5016061;28;20323;-51
2021/08/26 03:53:23;;;;;;;5.70;2.37;;;16.90;99.90;;;;;;5001846;28;20335;-50
2021/08/26 03:55:50;;;;;;;8.50;2.57;;;16.90;99.90;;;;;;5015000;28;20234;-50
2021/08/26 03:58:16;;;;;;;8.60;2.40;;;17.00;99.90;;;;;;5013422;28;20234;-51
2021/08/26 04:00:43;;;;;;;8.80;2.40;;;17.00;91.60;;;;;;5011781;28;20292;-51
2021/08/26 04:03:10;;;;;;;4.83;2.03;;;17.00;20.50;;;;;;5012475;28;20213;-50
2021/08/26 04:05:37;;;;;;;7.47;2.67;;;17.20;1.00;;;;;;5019668;28;20197;-51
2021/08/26 04:08:04;;;;;;;7.03;2.57;;;17.30;1.00;;;;;;5016358;28;20215;-51
2021/08/26 04:10:32;;;;;;;12.33;2.70;;;17.00;1.00;;;;;;5015451;28;20505;-50
2021/08/26 04:12:58;;;;;;;5.53;2.20;;;16.90;1.00;;;;;;5014545;28;20696;-50
2021/08/26 04:15:25;;;;;;;8.57;2.50;;;17.10;1.00;;;;;;5016075;28;20306;-50
2021/08/26 04:17:52;;;;;;;10.13;2.30;;;17.00;1.00;;;;;;5017322;28;20215;-50
2021/08/26 04:20:19;;;;;;;5.70;2.10;;;17.00;1.00;;;;;;5019322;28;20210;-50
2021/08/26 04:22:45;;;;;;;7.17;2.20;;;16.90;1.00;;;;;;5021780;28;20298;-50
2021/08/26 04:25:12;;;;;;;6.80;1.97;;;16.90;1.00;;;;;;5015209;28;20606;-50
2021/08/26 04:27:39;;;;;;;8.47;2.20;;;16.90;1.00;;;;;;5015167;28;20310;-50
2021/08/26 04:30:07;;;;;;;7.00;2.30;;;16.90;1.00;;;;;;5018883;28;20314;-51
2021/08/26 04:32:34;;;;;;;5.10;2.17;;;16.80;1.00;;;;;;5014568;28;20243;-50
2021/08/26 04:35:01;;;;;;;10.93;2.63;;;16.80;1.00;;;;;;5015583;28;20599;-50
2021/08/26 04:37:29;;;;;;;9.63;2.87;;;16.80;1.00;;;;;;5013993;28;20212;-50
2021/08/26 04:39:56;;;;;;;5.37;1.77;;;16.70;1.00;;;;;;5016750;28;20298;-50
2021/08/26 04:42:23;;;;;;;7.30;2.40;;;16.80;1.00;;;;;;5017008;28;20206;-50
2021/08/26 04:44:49;;;;;;;6.00;2.27;;;16.90;1.00;;;;;;5014738;28;20354;-50
2021/08/26 04:47:16;;;;;;;8.67;2.40;;;16.90;1.00;;;;;;5012753;28;20211;-50
2021/08/26 04:49:43;;;;;;;11.87;2.20;;;16.80;1.00;;;;;;5014955;28;20290;-49
2021/08/26 04:52:09;;;;;;;7.63;2.30;;;16.50;1.00;;;;;;5015885;28;20364;-51
2021/08/26 04:54:40;;;;;;;9.23;2.70;;;16.60;1.00;;;;;;5015428;28;20328;-50
2021/08/26 04:57:07;;;;;;;9.93;2.70;;;16.80;1.00;;;;;;5010990;28;20291;-50
2021/08/26 04:59:34;;;;;;;9.17;2.40;;;16.70;1.00;;;;;;5019719;28;20686;-51
2021/08/26 05:02:00;;;;;;;8.10;2.53;;;16.80;1.00;;;;;;5017857;28;20299;-50
2021/08/26 05:04:28;;;;;;;8.53;2.63;;;16.80;1.00;;;;;;5011699;28;20990;-51
2021/08/26 05:06:54;;;;;;;12.80;2.87;;;16.70;1.00;;;;;;5016681;28;20229;-50
2021/08/26 05:09:21;;;;;;;13.20;2.60;;;16.80;1.00;;;;;;5014020;28;20211;-50
2021/08/26 05:11:48;;;;;;;7.47;2.27;;;16.90;1.00;;;;;;5012663;28;20242;-50
2021/08/26 05:14:15;;;;;;;6.47;2.30;;;17.00;1.00;;;;;;5012275;28;20204;-51
2021/08/26 05:16:42;;;;;;;7.07;2.33;;;16.90;1.00;;;;;;5018695;28;20203;-50
2021/08/26 05:19:08;;;;;;;9.37;2.17;;;16.80;1.00;;;;;;5012836;28;20298;-51
2021/08/26 05:21:35;;;;;;;9.43;2.63;;;16.90;99.90;;;;;;5016940;28;20211;-50
2021/08/26 05:24:02;;;;;;;9.33;3.10;;;16.80;1.00;;;;;;5009351;28;20291;-51
2021/08/26 05:26:29;;;;;;;7.90;2.23;;;16.90;1.00;;;;;;5013533;28;20691;-50
2021/08/26 05:28:55;;;;;;;9.00;2.47;;;16.90;99.90;;;;;;5015292;28;20213;-50
2021/08/26 05:31:22;;;;;;;8.47;2.23;;;16.90;99.90;;;;;;5017520;28;20262;-51
2021/08/26 05:33:50;;;;;;;8.37;2.50;;;17.00;99.90;;;;;;5018952;28;20245;-50
2021/08/26 05:36:16;;;;;;;9.20;2.90;;;16.90;99.90;;;;;;5015690;28;20336;-50
2021/08/26 05:38:43;;;;;;;7.87;2.10;;;17.00;1.00;;;;;;5015795;28;20338;-50
2021/08/26 05:41:10;;;;;;;7.27;2.00;;;17.00;1.00;;;;;;5013031;28;20684;-51
2021/08/26 05:43:37;;;;;;;8.27;2.00;;;16.90;1.00;;;;;;5014300;28;20216;-51
2021/08/26 05:46:05;;;;;;;4.57;1.70;;;17.00;99.90;;;;;;5017454;28;20295;-51
2021/08/26 05:48:32;;;;;;;9.43;2.00;;;17.10;1.00;;;;;;5018131;28;20285;-51
2021/08/26 05:50:59;;;;;;;6.63;1.90;;;17.10;1.00;;;;;;5016589;28;20314;-50
2021/08/26 05:53:26;;;;;;;6.73;2.07;;;17.00;1.00;;;;;;5012455;28;20395;-50
2021/08/26 05:55:53;;;;;;;10.10;2.00;;;16.90;1.00;;;;;;5011919;28;20682;-50
2021/08/26 05:58:20;;;;;;;10.97;2.37;;;17.10;1.00;;;;;;5019979;28;20758;-50
2021/08/26 06:00:48;;;;;;;12.40;2.87;;;17.00;1.00;;;;;;5010529;28;20298;-49
2021/08/26 06:03:16;;;;;;;7.50;1.97;;;17.10;1.00;;;;;;5012816;28;20284;-50
2021/08/26 06:05:43;;;;;;;3.77;1.67;;;17.00;1.00;;;;;;5012468;28;20215;-50
2021/08/26 06:08:10;;;;;;;8.03;2.40;;;17.00;99.90;;;;;;5018154;28;20300;-50
2021/08/26 06:10:37;;;;;;;6.33;2.20;;;16.80;1.00;;;;;;5003113;28;20208;-50
2021/08/26 06:13:04;;;;;;;9.17;2.27;;;16.90;99.90;;;;;;5014551;28;20338;-50
2021/08/26 06:15:32;;;;;;;8.43;2.77;;;16.90;89.10;;;;;;5013578;28;20299;-50
2021/08/26 06:17:58;;;;;;;10.47;2.53;;;16.80;16.10;;;;;;5016748;28;20216;-50
2021/08/26 06:20:27;;;;;;;8.50;2.17;;;16.70;99.90;;;;;;5016495;28;20208;-50
2021/08/26 06:22:54;;;;;;;8.17;2.50;;;16.80;1.00;;;;;;5013687;28;20728;-50
2021/08/26 06:25:20;;;;;;;9.37;2.03;;;16.70;1.00;;;;;;5016866;28;21932;-49
2021/08/26 06:27:47;;;;;;;7.07;2.07;;;16.90;1.00;;;;;;5017459;28;20207;-50
2021/08/26 06:30:14;;;;;;;8.10;2.37;;;17.10;99.90;;;;;;5017038;28;20635;-50
2021/08/26 06:32:41;;;;;;;6.27;2.23;;;17.00;99.90;;;;;;5014674;28;20414;-50
2021/08/26 06:35:08;;;;;;;10.17;2.17;;;16.90;99.90;;;;;;5011154;28;20282;-50
2021/08/26 06:37:35;;;;;;;8.37;1.97;;;16.90;99.90;;;;;;5017439;28;20327;-50
2021/08/26 06:40:02;;;;;;;9.47;2.33;;;17.00;99.90;;;;;;5015588;28;20709;-50
2021/08/26 06:42:29;;;;;;;4.63;1.70;;;16.90;1.00;;;;;;5015513;28;20545;-49
2021/08/26 06:44:56;;;;;;;6.20;2.10;;;16.90;33.10;;;;;;5014486;28;20755;-50
2021/08/26 06:47:23;;;;;;;11.33;2.40;;;17.00;1.00;;;;;;5012273;28;20374;-50
2021/08/26 06:49:49;;;;;;;6.27;2.27;;;17.00;1.00;;;;;;5013073;28;20287;-50
2021/08/26 06:52:16;;;;;;;6.87;2.13;;;16.90;1.00;;;;;;5017377;28;20305;-50
2021/08/26 06:54:43;;;;;;;6.83;2.00;;;16.90;99.90;;;;;;5011028;28;20720;-50
2021/08/26 06:57:11;;;;;;;10.47;2.30;;;16.80;99.90;;;;;;5016824;28;20283;-50
2021/08/26 06:59:38;;;;;;;8.93;2.40;;;16.80;99.90;;;;;;5015171;28;20213;-50
2021/08/26 07:02:04;;;;;;;8.23;1.97;;;16.90;99.90;;;;;;5006722;28;20209;-50
2021/08/26 07:04:32;;;;;;;6.73;1.63;;;16.90;99.90;;;;;;5012989;28;20299;-50
2021/08/26 07:06:58;;;;;;;6.27;1.33;;;16.90;99.90;;;;;;5011413;28;20203;-50
2021/08/26 07:09:25;;;;;;;4.80;1.67;;;17.00;1.00;;;;;;5015488;28;20609;-50
2021/08/26 07:11:52;;;;;;;5.73;1.60;;;17.20;1.00;;;;;;5012011;28;21117;-50
2021/08/26 07:14:19;;;;;;;8.37;2.07;;;17.10;1.00;;;;;;5014480;28;20205;-50
2021/08/26 07:16:46;;;;;;;5.20;1.77;;;17.10;91.00;;;;;;5009726;28;20577;-50
2021/08/26 07:19:13;;;;;;;10.93;1.93;;;17.10;25.80;;;;;;5012458;28;20213;-50
2021/08/26 07:21:41;;;;;;;7.70;1.60;;;17.30;99.90;;;;;;5012127;28;20219;-50
2021/08/26 07:24:08;;;;;;;4.60;1.97;;;17.30;1.00;;;;;;5010971;28;20854;-50
2021/08/26 07:26:35;;;;;;;9.60;1.67;;;17.50;1.00;;;;;;5011304;28;20328;-49
2021/08/26 07:29:02;;;;;;;3.37;1.20;;;17.50;1.00;;;;;;5011648;28;20265;-49
2021/08/26 07:31:29;;;;;;;2.93;1.53;;;17.60;35.10;;;;;;5017984;28;20363;-50
2021/08/26 07:33:56;;;;;;;8.03;1.47;;;17.50;29.60;;;;;;5005069;28;20619;-49
2021/08/26 07:36:23;;;;;;;6.67;1.53;;;17.50;1.00;;;;;;5008730;28;20251;-49
2021/08/26 07:38:49;;;;;;;7.93;1.43;;;17.60;99.90;;;;;;5012556;28;20286;-49
2021/08/26 07:41:16;;;;;;;5.03;1.93;;;17.60;1.00;;;;;;5019785;28;20210;-49
2021/08/26 07:43:43;;;;;;;4.60;1.47;;;17.40;1.00;;;;;;5015380;28;20289;-50
2021/08/26 07:46:10;;;;;;;10.13;2.13;;;17.50;99.90;;;;;;5014296;28;20206;-50
2021/08/26 07:48:37;;;;;;;7.30;2.13;;;17.60;99.90;;;;;;5018797;28;20385;-50
2021/08/26 07:51:04;;;;;;;4.30;1.57;;;17.80;1.00;;;;;;5017701;28;20377;-49
2021/08/26 07:53:34;;;;;;;8.07;2.30;;;18.10;1.00;;;;;;5019584;28;20325;-50
2021/08/26 07:56:02;;;;;;;8.37;1.73;;;17.80;99.90;;;;;;5024494;28;20207;-49
2021/08/26 07:58:30;;;;;;;5.13;1.67;;;17.80;1.00;;;;;;5014243;28;20290;-49
2021/08/26 08:00:58;;;;;;;5.00;1.60;;;17.70;1.00;;;;;;5015618;28;20321;-50
2021/08/26 08:03:26;;;;;;;4.83;1.40;;;17.90;99.90;;;;;;5014478;28;20196;-50
2021/08/26 08:05:53;;;;;;;5.83;1.93;;;17.90;99.90;;;;;;5017038;28;20287;-50
2021/08/26 08:08:20;;;;;;;8.70;1.50;;;18.10;1.00;;;;;;5021411;28;20203;-50
2021/08/26 08:10:47;;;;;;;2.87;1.43;;;18.10;1.00;;;;;;5019123;28;20525;-50
2021/08/26 08:13:14;;;;;;;8.07;1.53;;;18.10;1.00;;;;;;5012187;28;20217;-50
2021/08/26 08:15:42;;;;;;;5.97;1.90;;;18.10;1.00;;;;;;5016644;28;20698;-50
2021/08/26 08:18:09;;;;;;;3.60;1.50;;;18.10;99.90;;;;;;5014290;28;20293;-50
2021/08/26 08:20:36;;;;;;;5.20;1.60;;;18.00;1.00;;;;;;5014318;28;20206;-49
2021/08/26 08:23:03;;;;;;;5.33;1.47;;;17.90;99.90;;;;;;5016493;28;20207;-49
2021/08/26 08:25:30;;;;;;;8.43;1.37;;;17.80;55.30;;;;;;5015952;28;20297;-50
2021/08/26 08:27:56;;;;;;;5.30;1.53;;;17.90;1.00;;;;;;5020093;28;20310;-50
2021/08/26 08:30:26;;;;;;;3.90;1.10;;;17.70;99.90;;;;;;5013947;28;20322;-49
2021/08/26 08:32:54;;;;;;;4.30;1.90;;;17.80;99.90;;;;;;5014262;28;20568;-50
2021/08/26 08:35:22;;;;;;;4.23;1.17;;;18.10;99.90;;;;;;5016250;28;20371;-50
2021/08/26 08:37:50;;;;;;;6.33;1.20;;;18.30;99.90;;;;;;5012632;28;20201;-50
2021/08/26 08:40:18;;;;;;;3.27;1.03;;;18.20;99.90;;;;;;5016242;28;20204;-50
2021/08/26 08:42:45;;;;;;;6.40;1.10;;;18.40;1.00;;;;;;5011902;28;20266;-50
2021/08/26 08:45:12;;;;;;;8.47;1.33;;;18.60;99.90;;;;;;5015137;28;20219;-50
2021/08/26 08:47:41;;;;;;;2.00;1.37;;;18.50;1.00;;;;;;5014794;28;20205;-50
2021/08/26 08:50:08;;;;;;;3.90;1.30;;;18.60;1.00;;;;;;5013140;28;20656;-51
2021/08/26 08:52:37;;;;;;;3.30;1.23;;;18.60;1.00;;;;;;5012906;28;21415;-50
2021/08/26 08:55:10;;;;;;;5.97;1.20;;;18.30;99.90;;;;;;5015093;28;20207;-50
2021/08/26 08:57:41;;;;;;;4.90;1.20;;;18.20;1.00;;;;;;5009055;28;20281;-50
2021/08/26 09:00:11;;;;;;;2.00;1.10;;;18.20;99.90;;;;;;5017467;28;20258;-50
2021/08/26 09:02:38;;;;;;;4.20;1.50;;;18.10;99.90;;;;;;5013541;28;20207;-50
2021/08/26 09:05:05;;;;;;;4.47;1.10;;;18.10;1.00;;;;;;5016407;28;20210;-50
2021/08/26 09:07:35;;;;;;;5.03;0.77;;;18.20;1.00;;;;;;5016411;28;20290;-50
2021/08/26 09:10:03;;;;;;;4.13;1.00;;;18.10;23.50;;;;;;5014803;28;20305;-50
2021/08/26 09:12:42;;;;;;;7.83;1.20;;;18.10;1.00;;;;;;5018267;28;20369;-50
2021/08/26 09:15:12;;;;;;;3.63;1.00;;;18.00;99.90;;;;;;5017401;28;20231;-50
2021/08/26 09:17:39;;;;;;;4.63;1.00;;;18.00;1.00;;;;;;5016164;28;20720;-50
2021/08/26 09:20:09;;;;;;;2.73;0.80;;;18.00;99.90;;;;;;5009068;28;20291;-50
2021/08/26 09:22:37;;;;;;;1.60;0.70;;;18.00;1.00;;;;;;5011189;28;20787;-50
2021/08/26 09:25:06;;;;;;;1.50;0.80;;;18.10;54.30;;;;;;5013284;28;20221;-50
2021/08/26 09:27:39;;;;;;;2.13;1.17;;;18.20;1.00;;;;;;5014263;28;20226;-49
2021/08/26 09:30:18;;;;;;;1.57;1.00;;;18.30;99.90;;;;;;5016643;28;20295;-50
2021/08/26 09:32:50;;;;;;;3.23;0.80;;;18.40;99.90;;;;;;5016450;28;20234;-50
2021/08/26 09:35:22;;;;;;;3.83;0.93;;;18.60;1.00;;;;;;5019384;28;20235;-50
2021/08/26 09:37:54;;;;;;;4.10;0.90;;;19.00;1.00;;;;;;5020776;28;20295;-50
2021/08/26 09:40:40;;;;;;;4.27;1.30;;;19.20;1.00;;;;;;5016962;28;20209;-50
2021/08/26 09:43:07;;;;;;;3.43;1.20;;;19.10;1.00;;;;;;5011434;28;20311;-50
2021/08/26 09:45:37;;;;;;;5.23;2.00;;;19.50;99.90;;;;;;5013669;28;20235;-50
2021/08/26 09:48:10;;;;;;;5.00;1.20;;;19.50;1.00;;;;;;5016461;28;20200;-50
2021/08/26 09:50:54;;;;;;;3.83;1.10;;;19.60;1.00;;;;;;5017075;28;20230;-50
2021/08/26 09:53:42;;;;;;;1.77;0.80;;;19.10;95.50;;;;;;5014656;28;20345;-50
2021/08/26 09:56:09;;;;;;;3.07;1.03;;;18.80;1.00;;;;;;5018018;28;20269;-50
2021/08/26 09:58:36;;;;;;;3.63;0.73;;;18.90;1.00;;;;;;5013913;28;20259;-50
2021/08/26 10:01:09;;;;;;;7.10;1.30;;;18.90;1.00;;;;;;5011152;28;20374;-50
2021/08/26 10:03:36;;;;;;;5.60;1.23;;;18.80;1.00;;;;;;5008193;28;20304;-50
2021/08/26 10:06:03;;;;;;;3.47;1.20;;;18.80;1.00;;;;;;5010613;28;20312;-50
2021/08/26 10:08:31;;;;;;;4.33;1.10;;;18.80;1.00;;;;;;5010341;28;20852;-50
2021/08/26 10:11:00;;;;;;;3.43;1.40;;;18.80;1.00;;;;;;5010563;28;20244;-50
2021/08/26 10:13:29;;;;;;;5.20;1.40;;;18.80;1.00;;;;;;5009875;28;20307;-50
2021/08/26 10:15:58;;;;;;;3.37;1.23;;;18.70;99.90;;;;;;5009262;28;20212;-49
2021/08/26 10:18:27;;;;;;;4.67;1.17;;;18.60;43.80;;;;;;5017010;28;20209;-50
2021/08/26 10:20:55;;;;;;;2.93;1.00;;;18.50;99.90;;;;;;5015837;28;20256;-50
2021/08/26 10:23:23;;;;;;;4.30;1.07;;;18.30;1.00;;;;;;5009753;28;20213;-50
2021/08/26 10:25:52;;;;;;;2.23;1.17;;;18.30;1.00;;;;;;5015304;28;20402;-50
2021/08/26 10:28:20;;;;;;;7.17;1.27;;;18.20;99.90;;;;;;5016711;28;20300;-50
2021/08/26 10:30:47;;;;;;;3.77;1.20;;;18.20;1.00;;;;;;5022718;28;20626;-50
2021/08/26 10:33:23;;;;;;;2.97;0.97;;;18.30;1.00;;;;;;5018397;28;20243;-50
2021/08/26 10:35:49;;;;;;;1.87;0.77;;;18.50;1.00;;;;;;5017335;28;20235;-50
2021/08/26 10:38:27;;;;;;;4.20;1.00;;;18.50;99.90;;;;;;5017723;28;20612;-49
2021/08/26 10:41:18;;;;;;;2.57;1.30;;;18.60;1.00;;;;;;5018525;28;20265;-51
2021/08/26 10:44:05;;;;;;;5.43;1.43;;;18.50;99.90;;;;;;5013756;28;20212;-50
2021/08/26 10:46:51;;;;;;;3.97;1.40;;;18.70;1.00;;;;;;5019898;28;20235;-49
2021/08/26 10:49:19;;;;;;;5.17;1.10;;;18.70;1.00;;;;;;5018200;28;20251;-49
2021/08/26 10:51:48;;;;;;;7.37;1.53;;;18.70;1.00;;;;;;5020359;28;20206;-52
2021/08/26 10:54:31;;;;;;;5.77;1.70;;;18.90;92.70;;;;;;5019148;28;20376;-49
2021/08/26 10:57:27;;;;;;;3.30;1.37;;;18.90;99.90;;;;;;5014137;28;20339;-49
2021/08/26 10:59:54;;;;;;;5.97;1.50;;;19.00;99.90;;;;;;5008914;28;20679;-50
2021/08/26 11:02:41;;;;;;;4.73;1.20;;;19.20;99.90;;;;;;5014571;28;20193;-49
2021/08/26 11:05:47;;;;;;;6.83;2.33;;;19.50;1.00;;;;;;5005201;28;20250;-50
2021/08/26 11:08:27;;;;;;;4.40;1.50;;;19.30;1.00;;;;;;5011661;28;20273;-49
2021/08/26 11:10:55;;;;;;;4.70;1.77;;;19.40;1.00;;;;;;5007503;28;20224;-56
2021/08/26 11:13:33;;;;;;;3.97;1.63;;;19.30;1.00;;;;;;5003727;28;20227;-56
2021/08/26 11:16:39;;;;;;;7.17;1.90;;;19.20;1.00;;;;;;5005958;28;20208;-56
2021/08/26 11:19:12;;;;;;;5.47;1.90;;;19.00;1.00;;;;;;4946672;28;20636;-56
2021/08/26 11:21:47;;;;;;;9.87;2.10;;;18.70;1.00;;;;;;4947390;28;20206;-49
2021/08/26 11:24:14;;;;;;;3.63;1.63;;;18.80;1.00;;;;;;4949006;28;20209;-49
2021/08/26 11:26:43;;;;;;;8.67;2.10;;;18.90;1.00;;;;;;4951703;28;20337;-49
2021/08/26 11:29:25;;;;;;;5.20;2.37;;;18.90;1.00;;;;;;4950351;28;20301;-50
2021/08/26 11:31:54;;;;;;;8.77;1.90;;;19.00;1.00;;;;;;4949933;28;21145;-49
2021/08/26 11:34:26;;;;;;;6.57;2.07;;;18.90;1.00;;;;;;4945909;28;20218;-49
2021/08/26 11:36:56;;;;;;;7.87;2.80;;;19.00;99.90;;;;;;4946867;28;20233;-49
2021/08/26 11:39:23;;;;;;;7.00;2.13;;;18.90;99.90;;;;;;4948603;28;20473;-49
2021/08/26 11:41:51;;;;;;;5.23;2.60;;;18.90;15.70;;;;;;4947720;28;20311;-50
2021/08/26 11:44:35;;;;;;;6.50;2.40;;;19.10;99.90;;;;;;4949813;28;20221;-49
2021/08/26 11:47:03;;;;;;;7.77;1.87;;;18.90;1.00;;;;;;4949223;28;20302;-49
2021/08/26 11:49:40;;;;;;;5.73;2.23;;;19.00;1.00;;;;;;4963248;28;23224;-49
2021/08/26 11:52:12;;;;;;;6.33;2.23;;;19.00;1.00;;;;;;5015658;28;20594;-49
2021/08/26 11:54:44;;;;;;;4.80;1.70;;;18.90;1.00;;;;;;5017455;28;20777;-49
2021/08/26 11:57:13;;;;;;;3.73;2.03;;;18.90;1.00;;;;;;5018062;28;20568;-48
2021/08/26 11:59:42;;;;;;;7.37;1.93;;;18.90;1.00;;;;;;5015396;28;20203;-49
2021/08/26 12:02:19;;;;;;;5.17;2.37;;;18.80;3.60;;;;;;5017621;28;20255;-49
2021/08/26 12:04:57;;;;;;;8.23;2.30;;;18.90;1.00;;;;;;5014600;28;20289;-49
2021/08/26 12:07:35;;;;;;;7.77;2.50;;;18.90;99.90;;;;;;5014863;28;20354;-49
2021/08/26 12:10:14;;;;;;;4.87;2.00;;;18.90;1.00;;;;;;5014981;28;20309;-50
2021/08/26 12:12:57;;;;;;;3.50;1.40;;;18.90;1.00;;;;;;5020307;28;20575;-49
2021/08/26 12:15:42;;;;;;;6.37;2.23;;;18.80;1.00;;;;;;5017754;28;20300;-49
2021/08/26 12:18:14;;;;;;;7.30;1.80;;;18.90;1.00;;;;;;5018955;28;20203;-49
2021/08/26 12:20:48;;;;;;;5.73;2.10;;;19.00;99.90;;;;;;5014063;28;20424;-49
2021/08/26 12:23:17;;;;;;;7.60;2.27;;;19.00;1.00;;;;;;5015254;28;20702;-49
2021/08/26 12:25:44;;;;;;;6.47;2.10;;;18.70;99.90;;;;;;5017534;28;21006;-51
2021/08/26 12:28:12;;;;;;;6.80;2.43;;;18.90;1.00;;;;;;5022379;28;20312;-49
2021/08/26 12:30:44;;;;;;;7.50;1.83;;;18.90;1.00;;;;;;5020182;28;20323;-49
2021/08/26 12:33:15;;;;;;;4.63;2.27;;;18.90;1.00;;;;;;5018129;28;20283;-49
2021/08/26 12:35:47;;;;;;;8.93;2.60;;;18.90;1.00;;;;;;5022138;28;20246;-50
2021/08/26 12:38:16;;;;;;;5.37;1.97;;;19.00;1.00;;;;;;5022910;28;20196;-49
2021/08/26 12:40:51;;;;;;;5.80;2.20;;;19.30;1.00;;;;;;5022218;28;20623;-50
2021/08/26 12:43:20;;;;;;;6.13;2.10;;;19.10;1.00;;;;;;5019537;28;20633;-49
2021/08/26 12:45:47;;;;;;;7.70;2.17;;;18.90;99.90;;;;;;5020353;28;20271;-49
2021/08/26 12:48:28;;;;;;;8.30;2.17;;;18.80;99.90;;;;;;5021943;28;20554;-50
2021/08/26 12:51:25;;;;;;;8.87;2.33;;;18.80;99.90;;;;;;5019269;28;20638;-50
2021/08/26 12:54:01;;;;;;;5.33;1.80;;;19.00;1.00;;;;;;5014799;28;20403;-50
2021/08/26 12:56:37;;;;;;;5.57;2.33;;;19.20;1.00;;;;;;5020620;28;20970;-50
2021/08/26 12:59:07;;;;;;;8.00;2.73;;;19.10;1.00;;;;;;5019357;28;20237;-50
2021/08/26 13:01:35;;;;;;;4.93;2.23;;;19.30;99.90;;;;;;5016693;28;20539;-50
2021/08/26 13:04:13;;;;;;;15.43;3.33;;;19.30;1.00;;;;;;5019005;28;20212;-50